Flight Track Log - Related Links

Times and Time Zones

All times are in EDT time to prevent confusion due to time zone crossing. See the SWA182 flight status page for this flight to view local times or setup timezone preferences in your user account.


Time Position Orientation Groundspeed Altitude Reporting Facility
EDT Latitude Longitude Course Direction KTS MPH feet Rate Location/Type
Sun 06:23:55 PM 32.8333 -96.8333 121° Southeast 171 197 1,500  Level Dallas / Fort Worth TRACON
Sun 06:24:31 PM 32.8167 -96.8000 121° Southeast 207 238 2,500 2,250 Climbing Dallas / Fort Worth TRACON
Sun 06:25:31 PM 32.7667 -96.7500 140° Southeast 229 264 5,100 2,450 Climbing Dallas / Fort Worth TRACON
Sun 06:26:31 PM 32.7000 -96.7833 203° Southwest 278 320 7,400 2,311 Climbing Dallas / Fort Worth TRACON
Sun 06:28:12 PM 32.5692 -96.8611 207° Southwest 307 353 11,300 2,385 Climbing Fort Worth Center
Sun 06:29:12 PM 32.4881 -96.9183 211° Southwest 337 388 13,800 2,350 Climbing Fort Worth Center
Sun 06:30:12 PM 32.4006 -96.9778 210° Southwest 359 413 16,000 2,400 Climbing Fort Worth Center
Sun 06:31:12 PM 32.3108 -97.0397 210° Southwest 371 427 18,600 2,000 Climbing Fort Worth Center
Sun 06:32:12 PM 32.2067 -97.0672 193° South 377 434 20,000 1,900 Climbing Fort Worth Center
Sun 06:33:12 PM 32.0939 -97.0675 180° South 382 440 22,400 1,950 Climbing Fort Worth Center
Sun 06:34:12 PM 31.9811 -97.0731 182° South 401 461 23,900 1,300 Climbing Fort Worth Center
Sun 06:35:12 PM 31.8706 -97.0906 188° South 406 467 25,000 889 Climbing Fort Worth Center
Sun 06:36:00 PM 31.7881 -97.1131 193° South 440 506 25,500 1,091 Climbing Houston Center
Sun 06:37:02 PM 31.6650 -97.1494 194° South 450 518 27,000 1,694 Climbing Houston Center
Sun 06:38:04 PM 31.5244 -97.1919 194° South 444 511 29,000 1,452 Climbing Houston Center
Sun 06:39:06 PM 31.4025 -97.2283 194° South 447 514 30,000 484 Climbing Houston Center
Sun 06:40:08 PM 31.2758 -97.2658 194° South 461 531 30,000  Level Houston Center
Sun 06:41:10 PM 31.1511 -97.3036 195° South 461 531 30,000  Level Houston Center
Sun 06:42:11 PM 31.0281 -97.3411 195° South 459 528 30,000  Level Houston Center
Sun 06:43:13 PM 30.9094 -97.3733 193° South 463 533 30,000  Level Houston Center
Sun 06:44:15 PM 30.7600 -97.4183 195° South 463 533 30,000 -339 Level Houston Center
Sun 06:45:17 PM 30.6356 -97.4550 194° South 459 528 29,300 -823 Descending Houston Center
Sun 06:46:19 PM 30.5092 -97.4917 194° South 462 532 28,300 -1,984 Descending Houston Center
Sun 06:47:21 PM 30.3825 -97.5314 195° South 465 535 25,200 -2,829 Descending Houston Center
Sun 06:48:22 PM 30.2708 -97.6025 209° Southwest 456 525 22,500 -2,634 Descending Houston Center
Sun 06:49:24 PM 30.1636 -97.6781 211° Southwest 448 516 19,800 -2,661 Descending Houston Center
Sun 06:50:26 PM 30.0531 -97.7547 211° Southwest 424 488 17,000 -2,679 Descending Houston Center
Sun 06:51:16 PM 29.9717 -97.8114 211° Southwest 402 463 14,800 -2,216 Descending Houston Center
Sun 06:52:17 PM 29.8886 -97.8869 218° Southwest 380 437 12,900 -1,672 Descending Houston Center
Sun 06:53:18 PM 29.8406 -97.9992 244° Southwest 362 417 11,400 -1,345 Descending Houston Center
Sun 06:54:13 PM 29.7994 -98.0983 244° Southwest 371 427 10,300 -1,040 Descending Houston Center
Sun 06:54:33 PM 29.7861 -98.1264 241° Southwest 353 406 10,100 -600 Descending Houston Center
Sun 06:55:13 PM 29.7594 -98.1875 243° Southwest 303 349 9,700 -774 Descending Houston Center
Sun 06:55:35 PM 29.7489 -98.2133 245° Southwest 303 349 9,300 -1,433 Descending Houston Center
Sun 06:56:20 PM 29.7217 -98.2764 244° Southwest 279 321 8,100 -1,645 Descending Houston Center
Sun 06:56:37 PM 29.7114 -98.3014 245° Southwest 287 330 7,600 -1,377 Descending Houston Center
Sun 06:57:21 PM 29.6872 -98.3575 244° Southwest 282 325 6,700 -1,161 Descending Houston Center
Sun 06:57:39 PM 29.6769 -98.3819 244° Southwest 283 326 6,400 -1,200 Descending Houston Center
Sun 06:58:16 PM 29.6775 -98.4333 271° West 276 318 5,600 -1,355 Descending Houston Center
Sun 06:58:41 PM 29.6819 -98.4722 278° West 296 341 5,000 -984 Descending Houston Center
Sun 06:59:17 PM 29.6897 -98.5231 280° West 264 304 4,600 -581 Descending Houston Center
Sun 06:59:43 PM 29.6931 -98.5525 277° West 255 293 4,400 -500 Descending Houston Center
Sun 07:00:17 PM 29.6817 -98.5939 252° West 224 258 4,100 -590 Descending Houston Center
Sun 07:00:44 PM 29.6606 -98.6114 216° Southwest 217 250 3,800 -537 Descending Houston Center
Sun 07:01:24 PM 29.6322 -98.6044 168° South 188 216 3,500 -677 Descending Houston Center
Sun 07:01:46 PM 29.6186 -98.5856 130° Southeast 198 228 3,100 -1,200 Descending Houston Center
Sun 07:02:19 PM 29.6008 -98.5603 129° Southeast 190 219 2,400 -1,065 Descending Houston Center
Sun 07:02:48 PM 29.5822 -98.5350 130° Southeast 191 220 2,000 -787 Descending Houston Center
Sun 07:03:20 PM 29.5700 -98.5206 134° Southeast 160 184 1,600 -774 Descending Houston Center
Sun 07:03:50 PM 29.5556 -98.5000 129° Southeast 147 169 1,200 -522 Descending Houston Center
Sun 07:04:52 PM 29.5333 -98.4717 132° Southeast 141 162 800 -387 Descending Houston Center

Login

Don't have an account? Register now (free) for customized features, flight alerts, and more!